createdAt,value
2018-11-21T00:02:16.049Z,12.80
2018-11-21T00:04:44.157Z,10.80
2018-11-21T00:07:12.636Z,10.63
2018-11-21T00:09:40.750Z,11.97
2018-11-21T00:12:08.849Z,12.30
2018-11-21T00:14:37.379Z,13.80
2018-11-21T00:17:05.468Z,13.28
2018-11-21T00:19:33.589Z,12.05
2018-11-21T00:22:01.668Z,10.98
2018-11-21T00:24:29.786Z,9.75
2018-11-21T00:27:17.364Z,12.18
2018-11-21T00:29:46.638Z,11.43
2018-11-21T00:32:33.846Z,11.57
2018-11-21T00:35:01.923Z,12.58
2018-11-21T00:37:29.974Z,12.50
2018-11-21T00:39:58.330Z,12.18
2018-11-21T00:42:26.408Z,12.75
2018-11-21T00:44:54.462Z,11.22
2018-11-21T00:47:23.012Z,12.53
2018-11-21T00:49:51.108Z,13.18
2018-11-21T00:52:19.627Z,12.73
2018-11-21T00:54:47.684Z,12.05
2018-11-21T00:57:15.844Z,13.43
2018-11-21T00:59:43.915Z,12.23
2018-11-21T01:02:12.017Z,13.38
2018-11-21T01:04:40.563Z,11.88
2018-11-21T01:07:08.629Z,11.50
2018-11-21T01:09:36.713Z,11.25
2018-11-21T01:12:05.208Z,12.18
2018-11-21T01:14:33.345Z,11.15
2018-11-21T01:17:01.510Z,11.80
2018-11-21T01:19:29.562Z,10.48
2018-11-21T01:21:57.992Z,11.45
2018-11-21T01:24:26.042Z,9.98
2018-11-21T01:26:54.100Z,11.48
2018-11-21T01:29:22.615Z,12.58
2018-11-21T01:31:51.084Z,12.43
2018-11-21T01:34:19.192Z,11.18
2018-11-21T01:36:47.238Z,9.48
2018-11-21T01:39:15.729Z,12.07
2018-11-21T01:41:43.795Z,11.40
2018-11-21T01:44:12.367Z,12.00
2018-11-21T01:46:40.838Z,11.73
2018-11-21T01:49:08.968Z,11.75
2018-11-21T01:51:37.768Z,12.05
2018-11-21T01:54:05.928Z,12.53
2018-11-21T01:56:34.035Z,11.73
2018-11-21T01:59:02.088Z,12.00
2018-11-21T02:01:49.652Z,12.50
2018-11-21T02:04:17.724Z,12.85
2018-11-21T02:06:45.828Z,10.45
2018-11-21T02:09:13.907Z,11.63
2018-11-21T02:11:42.001Z,11.95
2018-11-21T02:14:10.085Z,10.23
2018-11-21T02:16:38.134Z,11.97
2018-11-21T02:19:06.362Z,12.80
2018-11-21T02:21:35.185Z,11.93
2018-11-21T02:24:03.277Z,13.70
2018-11-21T02:26:31.435Z,10.45
2018-11-21T02:28:59.519Z,12.73
2018-11-21T02:31:27.625Z,12.20
2018-11-21T02:33:55.688Z,13.00
2018-11-21T02:36:23.813Z,13.25
2018-11-21T02:38:51.872Z,10.58
2018-11-21T02:41:19.965Z,8.68
2018-11-21T02:43:48.032Z,12.30
2018-11-21T02:46:16.145Z,11.30
2018-11-21T02:48:44.220Z,11.53
2018-11-21T02:51:12.339Z,11.50
2018-11-21T02:53:40.473Z,13.15
2018-11-21T02:56:08.546Z,10.55
2018-11-21T02:58:36.671Z,13.58
2018-11-21T03:01:05.172Z,10.48
2018-11-21T03:03:33.247Z,10.63
2018-11-21T03:06:01.350Z,11.53
2018-11-21T03:08:49.408Z,12.63
2018-11-21T03:11:17.502Z,16.50
2018-11-21T03:13:45.587Z,13.83
2018-11-21T03:16:13.688Z,10.72
2018-11-21T03:18:41.797Z,13.22
2018-11-21T03:21:10.258Z,9.73
2018-11-21T03:23:38.348Z,13.03
2018-11-21T03:26:06.417Z,11.00
2018-11-21T03:28:34.723Z,9.65
2018-11-21T03:31:03.309Z,11.43
2018-11-21T03:33:31.375Z,11.48
2018-11-21T03:35:59.742Z,13.83
2018-11-21T03:38:27.900Z,12.15
2018-11-21T03:40:56.021Z,11.53
2018-11-21T03:43:24.108Z,12.43
2018-11-21T03:45:52.223Z,15.65
2018-11-21T03:48:20.353Z,16.57
2018-11-21T03:50:48.470Z,14.85
2018-11-21T03:53:16.928Z,13.35
2018-11-21T03:55:45.022Z,14.13
2018-11-21T03:58:13.096Z,14.07
2018-11-21T04:00:41.201Z,12.43
2018-11-21T04:03:09.803Z,12.35
2018-11-21T04:05:37.858Z,10.00
2018-11-21T04:08:06.307Z,11.30
2018-11-21T04:10:34.351Z,10.50
2018-11-21T04:13:02.425Z,11.10
2018-11-21T04:15:30.522Z,11.12
2018-11-21T04:17:59.050Z,12.05
2018-11-21T04:20:27.122Z,10.60
2018-11-21T04:22:55.255Z,12.18
2018-11-21T04:25:23.340Z,11.38
2018-11-21T04:27:52.921Z,10.95
2018-11-21T04:30:21.003Z,13.10
2018-11-21T04:32:49.541Z,11.97
2018-11-21T04:35:17.644Z,11.05
2018-11-21T04:37:45.733Z,11.50
2018-11-21T04:40:13.795Z,12.30
2018-11-21T04:42:41.876Z,11.80
2018-11-21T04:45:10.902Z,10.90
2018-11-21T04:47:38.954Z,9.88
2018-11-21T04:50:07.663Z,11.22
2018-11-21T04:52:35.841Z,11.70
2018-11-21T04:55:03.989Z,12.10
2018-11-21T04:57:32.062Z,10.95
2018-11-21T05:00:00.192Z,11.85
2018-11-21T05:02:28.237Z,11.43
2018-11-21T05:04:56.345Z,10.32
2018-11-21T05:07:24.388Z,12.18
2018-11-21T05:09:52.558Z,10.13
2018-11-21T05:12:20.628Z,12.15
2018-11-21T05:14:48.693Z,9.90
2018-11-21T05:17:16.849Z,10.75
2018-11-21T05:19:44.929Z,10.80
2018-11-21T05:22:13.025Z,10.13
2018-11-21T05:24:41.094Z,12.80
2018-11-21T05:27:09.175Z,11.20
2018-11-21T05:29:37.251Z,13.38
2018-11-21T05:32:05.364Z,16.52
2018-11-21T05:34:33.505Z,13.30
2018-11-21T05:37:01.575Z,10.70
2018-11-21T05:39:29.673Z,12.68
2018-11-21T05:41:57.730Z,12.75
2018-11-21T05:44:31.246Z,17.70
2018-11-21T05:46:54.006Z,16.85
2018-11-21T05:49:22.112Z,16.23
2018-11-21T05:51:50.187Z,15.53
2018-11-21T05:54:18.661Z,15.08
2018-11-21T05:56:46.745Z,19.35
2018-11-21T05:59:14.812Z,19.57
2018-11-21T06:01:42.887Z,18.90
2018-11-21T06:04:10.938Z,13.38
2018-11-21T06:06:39.010Z,13.40
2018-11-21T06:09:26.806Z,14.55
2018-11-21T06:11:54.896Z,13.53
2018-11-21T06:14:23.043Z,18.57
2018-11-21T06:16:51.530Z,16.82
2018-11-21T06:19:19.958Z,14.28
2018-11-21T06:21:48.452Z,16.60
2018-11-21T06:24:16.926Z,15.30
2018-11-21T06:27:07.936Z,16.87
2018-11-21T06:29:36.069Z,16.57
2018-11-21T06:32:04.137Z,16.60
2018-11-21T06:34:32.919Z,15.23
2018-11-21T06:37:00.294Z,12.00
2018-11-21T06:39:47.850Z,12.65
2018-11-21T06:42:16.295Z,15.38
2018-11-21T06:44:44.354Z,11.20
2018-11-21T06:47:12.483Z,14.18
2018-11-21T06:49:40.550Z,12.03
2018-11-21T06:52:08.657Z,12.40
2018-11-21T06:54:37.459Z,13.10
2018-11-21T06:57:05.856Z,13.43
2018-11-21T06:59:33.963Z,11.55
2018-11-21T07:02:02.475Z,11.50
2018-11-21T07:04:30.535Z,10.90
2018-11-21T07:06:59.007Z,11.88
2018-11-21T07:09:27.463Z,11.00
2018-11-21T07:11:55.553Z,18.37
2018-11-21T07:14:23.618Z,26.00
2018-11-21T07:16:51.684Z,13.32
2018-11-21T07:19:19.744Z,20.25
2018-11-21T07:21:47.832Z,17.20
2018-11-21T07:24:16.304Z,15.10
2018-11-21T07:26:44.390Z,15.25
2018-11-21T07:29:12.466Z,12.88
2018-11-21T07:31:40.543Z,11.90
2018-11-21T07:34:08.615Z,11.80
2018-11-21T07:36:36.693Z,12.25
2018-11-21T07:39:06.823Z,10.82
2018-11-21T07:41:34.904Z,11.48
2018-11-21T07:44:03.014Z,11.40
2018-11-21T07:46:31.107Z,9.95
2018-11-21T07:48:59.194Z,10.18
2018-11-21T07:51:27.226Z,11.10
2018-11-21T07:53:55.301Z,12.45
2018-11-21T07:57:03.482Z,12.53
2018-11-21T07:59:32.261Z,10.93
2018-11-21T08:02:19.504Z,10.18
2018-11-21T08:05:01.080Z,10.72
2018-11-21T08:07:35.089Z,11.30
2018-11-21T08:10:22.281Z,12.03
2018-11-21T08:13:09.509Z,14.20
2018-11-21T08:15:56.727Z,13.15
2018-11-21T08:18:43.958Z,13.80
2018-11-21T08:21:20.629Z,11.65
2018-11-21T08:23:55.714Z,12.98
2018-11-21T08:26:42.378Z,12.03
2018-11-21T08:29:10.618Z,12.88
2018-11-21T08:31:38.748Z,12.80
2018-11-21T08:34:06.842Z,14.58
2018-11-21T08:36:34.898Z,12.68
2018-11-21T08:39:05.754Z,16.65
2018-11-21T08:41:33.858Z,13.75
2018-11-21T08:44:01.959Z,12.50
2018-11-21T08:46:30.452Z,14.25
2018-11-21T08:48:58.567Z,12.95
2018-11-21T08:51:27.024Z,13.18
2018-11-21T08:53:55.132Z,13.38
2018-11-21T08:56:23.212Z,14.20
2018-11-21T08:58:52.367Z,12.90
2018-11-21T09:01:20.859Z,14.33
2018-11-21T09:03:49.753Z,12.75
2018-11-21T09:06:17.806Z,15.98
2018-11-21T09:08:45.918Z,12.73
2018-11-21T09:11:14.469Z,14.58
2018-11-21T09:13:42.485Z,15.43
2018-11-21T09:16:10.552Z,12.88
2018-11-21T09:18:38.648Z,13.78
2018-11-21T09:21:06.717Z,12.85
2018-11-21T09:23:34.895Z,14.33
2018-11-21T09:26:02.984Z,14.60
2018-11-21T09:28:31.106Z,14.23
2018-11-21T09:30:59.179Z,15.05
2018-11-21T09:33:27.219Z,15.18
2018-11-21T09:35:55.275Z,15.05
2018-11-21T09:38:23.754Z,14.58
2018-11-21T09:40:51.820Z,15.70
2018-11-21T09:43:19.878Z,16.10
2018-11-21T09:45:47.932Z,16.17
2018-11-21T09:48:16.554Z,15.98
2018-11-21T09:50:44.575Z,18.60
2018-11-21T09:53:12.656Z,15.53
2018-11-21T09:55:41.123Z,18.12
2018-11-21T09:58:09.229Z,18.67
2018-11-21T10:01:16.150Z,16.60
2018-11-21T10:03:44.302Z,14.10
2018-11-21T10:06:23.513Z,15.25
2018-11-21T10:09:11.796Z,16.20
2018-11-21T10:11:40.317Z,23.25
2018-11-21T10:14:08.414Z,15.20
2018-11-21T10:16:36.487Z,16.75
2018-11-21T10:19:05.336Z,16.15
2018-11-21T10:21:34.692Z,17.67
2018-11-21T10:24:02.814Z,16.52
2018-11-21T10:26:30.924Z,19.40
2018-11-21T10:28:59.403Z,16.05
2018-11-21T10:31:27.466Z,17.45
2018-11-21T10:33:55.561Z,17.60
2018-11-21T10:36:24.066Z,17.82
2018-11-21T10:38:52.196Z,18.25
2018-11-21T10:41:20.688Z,19.40
2018-11-21T10:43:48.736Z,18.98
2018-11-21T10:46:16.847Z,15.50
2018-11-21T10:48:44.931Z,18.67
2018-11-21T10:51:14.456Z,17.92
2018-11-21T10:53:41.193Z,17.07
2018-11-21T10:56:09.298Z,17.80
2018-11-21T10:58:37.385Z,18.37
2018-11-21T11:01:24.685Z,19.75
2018-11-21T11:03:55.587Z,19.40
2018-11-21T11:06:43.228Z,15.15
2018-11-21T11:09:31.865Z,16.55
2018-11-21T11:12:19.533Z,17.73
2018-11-21T11:15:06.760Z,15.63
2018-11-21T11:17:54.042Z,15.55
2018-11-21T11:20:41.282Z,15.78
2018-11-21T11:23:28.575Z,16.73
2018-11-21T11:26:15.819Z,15.95
2018-11-21T11:28:54.453Z,16.15
2018-11-21T11:31:41.643Z,16.30
2018-11-21T11:34:29.023Z,16.52
2018-11-21T11:37:16.531Z,15.88
2018-11-21T11:40:03.746Z,17.98
2018-11-21T11:42:51.008Z,16.82
2018-11-21T11:45:28.786Z,15.40
2018-11-21T11:48:15.993Z,15.98
2018-11-21T11:51:03.284Z,15.38
2018-11-21T11:53:50.502Z,17.42
2018-11-21T11:56:37.714Z,16.80
2018-11-21T11:59:25.060Z,16.57
2018-11-21T12:02:13.380Z,15.88
2018-11-21T12:04:59.385Z,14.90
2018-11-21T12:07:46.656Z,14.13
2018-11-21T12:10:33.914Z,15.75
2018-11-21T12:13:21.197Z,14.30
2018-11-21T12:16:09.298Z,16.15
2018-11-21T12:18:48.165Z,14.40
2018-11-21T12:21:35.357Z,19.00
2018-11-21T12:24:12.473Z,15.98
2018-11-21T12:26:47.753Z,21.48
2018-11-21T12:29:28.032Z,17.87
2018-11-21T12:32:15.289Z,25.90
2018-11-21T12:35:02.510Z,24.77
2018-11-21T12:37:49.733Z,18.35
2018-11-21T12:40:37.006Z,15.83
2018-11-21T12:43:24.740Z,15.35
2018-11-21T12:46:08.274Z,19.20
2018-11-21T12:48:55.519Z,16.12
2018-11-21T12:51:42.778Z,19.15
2018-11-21T12:54:30.036Z,17.85
2018-11-21T12:57:17.267Z,17.05
2018-11-21T13:00:04.486Z,16.37
2018-11-21T13:02:51.745Z,16.00
2018-11-21T13:05:39.365Z,15.00
2018-11-21T13:08:26.589Z,17.12
2018-11-21T13:11:13.860Z,16.90
2018-11-21T13:14:01.586Z,17.05
2018-11-21T13:16:48.349Z,16.40
2018-11-21T13:19:36.001Z,17.32
2018-11-21T13:22:23.197Z,17.70
2018-11-21T13:25:10.840Z,16.52
2018-11-21T13:27:58.101Z,16.87
2018-11-21T13:30:45.342Z,18.30
2018-11-21T13:33:32.631Z,19.77
2018-11-21T13:36:19.962Z,18.20
2018-11-21T13:39:07.175Z,19.98
2018-11-21T13:41:54.475Z,18.40
2018-11-21T13:44:41.747Z,18.45
2018-11-21T13:47:28.944Z,17.70
2018-11-21T13:50:16.280Z,18.92
2018-11-21T13:53:03.523Z,17.90
2018-11-21T13:55:31.687Z,18.40
2018-11-21T13:58:19.560Z,17.05
2018-11-21T14:00:47.586Z,16.77
2018-11-21T14:03:15.638Z,16.75
2018-11-21T14:05:43.735Z,18.65
2018-11-21T14:08:12.178Z,18.42
2018-11-21T14:10:40.271Z,19.27
2018-11-21T14:13:08.349Z,18.10
2018-11-21T14:15:36.451Z,20.85
2018-11-21T14:18:04.519Z,19.17
2018-11-21T14:20:32.600Z,19.23
2018-11-21T14:23:00.689Z,21.35
2018-11-21T14:25:29.140Z,20.12
2018-11-21T14:28:16.730Z,18.48
2018-11-21T14:30:44.833Z,23.50
2018-11-21T14:33:12.904Z,19.02
2018-11-21T14:35:41.032Z,17.35
2018-11-21T14:38:09.128Z,15.48
2018-11-21T14:40:37.180Z,16.42
2018-11-21T14:43:05.284Z,18.37
2018-11-21T14:45:33.355Z,17.52
2018-11-21T14:48:01.512Z,17.75
2018-11-21T14:50:49.072Z,16.35
2018-11-21T14:53:17.141Z,17.85
2018-11-21T14:55:45.226Z,15.65
2018-11-21T14:58:13.294Z,19.87
2018-11-21T15:00:41.723Z,19.30
2018-11-21T15:03:09.811Z,22.58
2018-11-21T15:05:37.862Z,56.18
2018-11-21T15:08:06.287Z,28.62
2018-11-21T15:10:34.322Z,21.25
2018-11-21T15:13:02.375Z,20.45
2018-11-21T15:15:30.465Z,18.67
2018-11-21T15:17:58.571Z,20.70
2018-11-21T15:20:26.718Z,20.12
2018-11-21T15:22:54.828Z,20.62
2018-11-21T15:25:42.402Z,18.27
2018-11-21T15:28:10.899Z,18.60
2018-11-21T15:30:38.937Z,17.73
2018-11-21T15:33:07.190Z,19.40
2018-11-21T15:35:35.329Z,18.45
2018-11-21T15:38:03.477Z,16.12
2018-11-21T15:40:31.933Z,16.90
2018-11-21T15:43:00.075Z,16.87
2018-11-21T15:45:28.587Z,18.70
2018-11-21T15:47:58.916Z,16.52
2018-11-21T15:50:27.623Z,17.10
2018-11-21T15:52:55.747Z,18.32
2018-11-21T15:55:23.809Z,17.12
2018-11-21T15:57:52.046Z,19.27
2018-11-21T16:00:23.064Z,17.62
2018-11-21T16:02:52.789Z,17.80
2018-11-21T16:05:20.968Z,18.15
2018-11-21T16:07:49.652Z,17.50
2018-11-21T16:10:19.656Z,18.20
2018-11-21T16:12:47.794Z,17.65
2018-11-21T16:15:18.800Z,17.20
2018-11-21T16:17:47.396Z,18.42
2018-11-21T16:20:16.456Z,18.15
2018-11-21T16:22:44.540Z,19.48
2018-11-21T16:25:14.661Z,14.98
2018-11-21T16:27:43.681Z,16.73
2018-11-21T16:30:14.100Z,15.65
2018-11-21T16:32:42.764Z,18.80
2018-11-21T16:35:11.268Z,16.93
2018-11-21T16:37:40.307Z,16.55
2018-11-21T16:40:14.251Z,17.37
2018-11-21T16:42:42.450Z,15.53
2018-11-21T16:45:12.743Z,17.23
2018-11-21T16:47:40.816Z,15.40
2018-11-21T16:50:11.851Z,15.13
2018-11-21T16:52:39.981Z,16.50
2018-11-21T16:55:27.976Z,16.97
2018-11-21T16:57:57.073Z,14.38
2018-11-21T17:00:26.816Z,18.25
2018-11-21T17:02:54.946Z,17.62
2018-11-21T17:05:24.472Z,16.00
2018-11-21T17:39:04.512Z,16.77
2018-11-21T17:41:32.935Z,14.18
2018-11-21T17:44:01.054Z,17.77
2018-11-21T17:46:29.142Z,16.62
2018-11-21T17:48:57.708Z,19.20
2018-11-21T17:51:26.714Z,16.80
2018-11-21T17:53:53.982Z,16.07
2018-11-21T17:56:22.038Z,16.23
2018-11-21T17:58:50.117Z,15.30
2018-11-21T18:01:18.323Z,18.48
2018-11-21T18:03:46.427Z,16.17
2018-11-21T18:06:34.115Z,14.78
2018-11-21T18:09:02.197Z,15.40
2018-11-21T18:11:49.863Z,17.75
2018-11-21T18:14:18.851Z,19.77
2018-11-21T18:16:46.935Z,13.83
2018-11-21T18:19:15.085Z,13.48
2018-11-21T18:21:43.561Z,18.42
2018-11-21T18:24:11.757Z,14.87
2018-11-21T18:26:39.801Z,13.65
2018-11-21T18:29:11.615Z,14.38
2018-11-21T18:31:36.131Z,14.60
2018-11-21T18:34:05.253Z,15.45
2018-11-21T18:36:33.353Z,15.43
2018-11-21T18:39:01.482Z,14.28
2018-11-21T18:41:49.411Z,12.05
2018-11-21T18:44:17.515Z,13.68
2018-11-21T18:46:45.700Z,16.00
2018-11-21T18:49:13.764Z,15.83
2018-11-21T18:52:01.406Z,13.58
2018-11-21T18:54:29.980Z,13.22
2018-11-21T18:57:36.963Z,14.28
2018-11-21T19:00:26.006Z,16.35
2018-11-21T19:02:54.162Z,15.68
2018-11-21T19:05:22.282Z,16.60
2018-11-21T19:07:50.383Z,14.30
2018-11-21T19:10:18.563Z,13.30
2018-11-21T19:12:46.734Z,13.95
2018-11-21T19:15:16.097Z,14.98
2018-11-21T19:17:44.595Z,16.32
2018-11-21T19:20:32.885Z,13.75
2018-11-21T19:23:00.973Z,13.35
2018-11-21T19:25:29.097Z,13.25
2018-11-21T19:27:57.185Z,11.50
2018-11-21T19:30:25.668Z,11.57
2018-11-21T19:32:53.809Z,14.80
2018-11-21T19:35:22.298Z,13.18
2018-11-21T19:37:50.403Z,13.60
2018-11-21T19:40:18.536Z,13.13
2018-11-21T19:42:46.617Z,12.15
2018-11-21T19:45:16.481Z,14.75
2018-11-21T19:47:44.592Z,11.95
2018-11-21T19:50:14.231Z,14.75
2018-11-21T19:52:43.503Z,14.18
2018-11-21T19:55:14.322Z,14.00
2018-11-21T19:57:43.206Z,19.27
2018-11-21T20:00:14.233Z,14.40
2018-11-21T20:02:42.326Z,14.38
2018-11-21T20:05:10.404Z,14.40
2018-11-21T20:07:39.570Z,18.73
2018-11-21T20:10:08.707Z,18.10
2018-11-21T20:12:40.103Z,15.90
2018-11-21T20:15:06.858Z,14.30
2018-11-21T20:17:34.970Z,16.73
2018-11-21T20:20:03.174Z,15.18
2018-11-21T20:22:31.342Z,15.28
2018-11-21T20:24:59.784Z,15.03
2018-11-21T20:27:27.915Z,17.00
2018-11-21T20:29:56.240Z,13.00
2018-11-21T20:32:24.295Z,15.50
2018-11-21T20:34:52.421Z,14.03
2018-11-21T20:37:20.588Z,14.10
2018-11-21T20:39:48.685Z,12.68
2018-11-21T20:42:16.775Z,12.15
2018-11-21T20:45:04.892Z,14.10
2018-11-21T20:47:32.981Z,15.55
2018-11-21T20:50:01.108Z,16.15
2018-11-21T20:52:29.196Z,15.53
2018-11-21T20:55:17.810Z,15.90
2018-11-21T20:57:45.957Z,15.85
2018-11-21T21:00:16.077Z,14.05
2018-11-21T21:03:03.663Z,14.20
2018-11-21T21:05:31.813Z,15.20
2018-11-21T21:08:19.376Z,18.62
2018-11-21T21:10:48.826Z,12.18
2018-11-21T21:13:16.930Z,13.20
2018-11-21T21:15:45.004Z,13.90
2018-11-21T21:18:13.126Z,14.45
2018-11-21T21:21:00.700Z,13.45
2018-11-21T21:23:28.765Z,13.30
2018-11-21T21:25:56.848Z,13.38
2018-11-21T21:28:24.972Z,14.18
2018-11-21T21:30:53.431Z,13.18
2018-11-21T21:33:21.499Z,14.15
2018-11-21T21:35:49.660Z,16.25
2018-11-21T21:38:17.753Z,12.15
2018-11-21T21:40:53.431Z,15.43
2018-11-21T21:43:22.350Z,12.68
2018-11-21T21:48:42.961Z,12.53
2018-11-21T21:51:11.064Z,15.68
2018-11-21T21:53:39.673Z,13.75
2018-11-21T21:56:07.660Z,12.50
2018-11-21T21:58:35.797Z,14.40
2018-11-21T22:01:03.878Z,13.48
2018-11-21T22:03:32.374Z,13.38
2018-11-21T22:06:00.474Z,15.60
2018-11-21T22:08:28.520Z,14.50
2018-11-21T22:10:56.568Z,14.00
2018-11-21T22:13:24.650Z,14.75
2018-11-21T22:15:52.714Z,13.58
2018-11-21T22:18:20.783Z,15.65
2018-11-21T22:20:48.872Z,13.53
2018-11-21T22:23:19.325Z,14.40
2018-11-21T22:25:47.934Z,14.65
2018-11-21T22:28:16.008Z,13.78
2018-11-21T22:30:44.039Z,13.22
2018-11-21T22:33:12.558Z,14.60
2018-11-21T22:35:41.386Z,15.20
2018-11-21T22:38:09.433Z,13.70
2018-11-21T22:40:37.523Z,13.62
2018-11-21T22:43:05.818Z,12.82
2018-11-21T22:45:53.418Z,11.95
2018-11-21T22:48:41.620Z,12.20
2018-11-21T22:51:09.705Z,13.25
2018-11-21T22:53:37.862Z,13.18
2018-11-21T22:56:06.144Z,11.63
2018-11-21T22:58:34.292Z,12.95
2018-11-21T23:01:02.851Z,13.18
2018-11-21T23:03:31.018Z,13.78
2018-11-21T23:06:00.127Z,13.80
2018-11-21T23:08:28.761Z,12.95
2018-11-21T23:10:57.015Z,11.45
2018-11-21T23:13:25.001Z,13.13
2018-11-21T23:15:53.070Z,12.93
2018-11-21T23:18:21.149Z,13.35
2018-11-21T23:20:49.355Z,12.80
2018-11-21T23:23:17.431Z,13.62
2018-11-21T23:26:05.109Z,12.63
2018-11-21T23:28:33.249Z,12.73
2018-11-21T23:31:01.393Z,11.12
2018-11-21T23:33:29.486Z,14.10
2018-11-21T23:35:57.595Z,10.70
2018-11-21T23:38:25.709Z,12.82
2018-11-21T23:40:53.785Z,13.58
2018-11-21T23:43:21.897Z,13.20
2018-11-21T23:46:09.503Z,11.60
2018-11-21T23:48:57.133Z,10.55
2018-11-21T23:51:25.472Z,11.60
2018-11-21T23:53:53.668Z,11.85
2018-11-21T23:56:21.680Z,11.25
2018-11-21T23:58:49.799Z,12.33
